createdAt,value
2023-03-11T00:00:09.958Z,78.44
2023-03-11T00:01:09.955Z,77.36
2023-03-11T00:02:09.946Z,77.79
2023-03-11T00:03:09.916Z,77.40
2023-03-11T00:04:09.908Z,77.34
2023-03-11T00:05:09.978Z,78.36
2023-03-11T00:06:09.870Z,78.12
2023-03-11T00:07:09.871Z,78.49
2023-03-11T00:08:09.884Z,77.89
2023-03-11T00:09:09.871Z,78.20
2023-03-11T00:10:09.832Z,78.35
2023-03-11T00:11:09.851Z,78.00
2023-03-11T00:12:09.802Z,78.82
2023-03-11T00:13:09.800Z,78.24
2023-03-11T00:14:09.789Z,78.42
2023-03-11T00:15:09.774Z,79.11
2023-03-11T00:16:09.850Z,79.46
2023-03-11T00:17:09.773Z,79.31
2023-03-11T00:18:09.748Z,78.83
2023-03-11T00:19:09.715Z,79.36
2023-03-11T00:20:09.701Z,77.99
2023-03-11T00:21:09.682Z,77.78
2023-03-11T00:22:09.691Z,78.63
2023-03-11T00:23:09.706Z,78.92
2023-03-11T00:24:09.668Z,78.88
2023-03-11T00:25:09.645Z,79.01
2023-03-11T00:26:09.627Z,78.67
2023-03-11T00:27:09.618Z,78.59
2023-03-11T00:28:09.607Z,78.86
2023-03-11T00:29:09.611Z,79.18
2023-03-11T00:30:09.574Z,79.34
2023-03-11T00:31:09.597Z,79.71
2023-03-11T00:32:09.564Z,79.99
2023-03-11T00:33:09.551Z,79.63
2023-03-11T00:34:11.154Z,79.92
2023-03-11T00:35:09.571Z,79.95
2023-03-11T00:36:09.528Z,78.88
2023-03-11T00:37:09.479Z,79.33
2023-03-11T00:38:09.470Z,79.55
2023-03-11T00:39:09.458Z,79.49
2023-03-11T00:40:09.453Z,78.35
2023-03-11T00:41:09.468Z,79.05
2023-03-11T00:42:09.418Z,77.90
2023-03-11T00:43:09.415Z,78.25
2023-03-11T00:44:09.399Z,78.66
2023-03-11T00:45:09.389Z,78.75
2023-03-11T00:46:09.460Z,77.96
2023-03-11T00:47:09.408Z,78.18
2023-03-11T00:48:09.342Z,78.85
2023-03-11T00:49:09.342Z,78.49
2023-03-11T00:50:09.312Z,79.15
2023-03-11T00:51:09.309Z,79.64
2023-03-11T00:52:09.293Z,79.18
2023-03-11T00:53:09.309Z,78.93
2023-03-11T00:54:09.281Z,78.45
2023-03-11T00:55:09.275Z,79.06
2023-03-11T00:56:09.247Z,79.29
2023-03-11T00:57:09.226Z,78.34
2023-03-11T00:58:09.217Z,78.46
2023-03-11T00:59:09.240Z,79.19
2023-03-11T01:00:09.189Z,79.33
2023-03-11T01:01:09.224Z,79.63
2023-03-11T01:02:09.180Z,78.81
2023-03-11T01:03:09.172Z,78.89
2023-03-11T01:04:09.172Z,78.57
2023-03-11T01:05:09.157Z,78.44
2023-03-11T01:06:09.127Z,78.42
2023-03-11T01:07:11.370Z,78.41
2023-03-11T01:08:09.095Z,78.52
2023-03-11T01:09:09.103Z,78.54
2023-03-11T01:10:09.065Z,78.53
2023-03-11T01:11:09.085Z,79.36
2023-03-11T01:12:09.039Z,78.55
2023-03-11T01:13:09.041Z,79.08
2023-03-11T01:14:09.028Z,78.65
2023-03-11T01:15:09.009Z,78.86
2023-03-11T01:16:09.100Z,79.59
2023-03-11T01:17:09.026Z,79.48
2023-03-11T01:18:08.971Z,79.29
2023-03-11T01:19:08.955Z,78.42
2023-03-11T01:20:08.948Z,78.78
2023-03-11T01:21:08.934Z,78.90
2023-03-11T01:22:08.918Z,79.03
2023-03-11T01:23:08.941Z,79.66
2023-03-11T01:24:08.889Z,79.62
2023-03-11T01:25:08.882Z,79.73
2023-03-11T01:26:08.875Z,79.89
2023-03-11T01:27:08.858Z,80.32
2023-03-11T01:28:08.838Z,80.01
2023-03-11T01:29:08.853Z,80.21
2023-03-11T01:30:08.824Z,79.83
2023-03-11T01:31:08.861Z,79.65
2023-03-11T01:32:08.787Z,79.26
2023-03-11T01:33:08.779Z,79.42
2023-03-11T01:34:08.770Z,80.45
2023-03-11T01:35:08.786Z,80.55
2023-03-11T01:36:08.832Z,80.82
2023-03-11T01:37:08.735Z,80.19
2023-03-11T01:38:08.728Z,80.01
2023-03-11T01:39:08.695Z,80.42
2023-03-11T01:40:08.687Z,78.93
2023-03-11T01:41:08.707Z,79.65
2023-03-11T01:42:08.679Z,80.00
2023-03-11T01:43:08.653Z,80.28
2023-03-11T01:44:08.636Z,79.82
2023-03-11T01:45:08.626Z,79.55
2023-03-11T01:46:08.679Z,79.75
2023-03-11T01:47:08.661Z,80.03
2023-03-11T01:48:08.593Z,79.99
2023-03-11T01:49:08.575Z,79.82
2023-03-11T01:50:08.561Z,80.00
2023-03-11T01:51:08.551Z,80.48
2023-03-11T01:52:08.539Z,80.34
2023-03-11T01:53:08.576Z,79.69
2023-03-11T01:54:08.535Z,78.90
2023-03-11T01:55:08.504Z,79.37
2023-03-11T01:56:08.481Z,79.29
2023-03-11T01:57:08.481Z,80.24
2023-03-11T01:58:08.462Z,80.16
2023-03-11T01:59:08.470Z,80.23
2023-03-11T02:00:08.552Z,79.84
2023-03-11T02:01:14.890Z,79.57
2023-03-11T02:02:08.472Z,79.67
2023-03-11T02:03:08.541Z,79.29
2023-03-11T02:04:08.399Z,79.69
2023-03-11T02:05:08.427Z,79.62
2023-03-11T02:06:08.361Z,79.58
2023-03-11T02:07:08.354Z,79.57
2023-03-11T02:08:08.338Z,80.04
2023-03-11T02:09:08.329Z,79.63
2023-03-11T02:10:08.321Z,79.95
2023-03-11T02:11:08.362Z,79.67
2023-03-11T02:12:08.300Z,80.35
2023-03-11T02:13:08.268Z,80.07
2023-03-11T02:14:08.294Z,80.66
2023-03-11T02:15:08.256Z,80.51
2023-03-11T02:16:08.362Z,80.66
2023-03-11T02:17:08.272Z,81.19
2023-03-11T02:18:08.236Z,81.54
2023-03-11T02:19:08.229Z,81.02
2023-03-11T02:20:08.201Z,79.64
2023-03-11T02:21:08.224Z,79.88
2023-03-11T02:22:08.190Z,79.81
2023-03-11T02:23:08.212Z,80.18
2023-03-11T02:24:08.167Z,80.30
2023-03-11T02:25:08.144Z,80.28
2023-03-11T02:26:08.125Z,80.69
2023-03-11T02:27:08.122Z,80.57
2023-03-11T02:28:08.127Z,80.38
2023-03-11T02:29:08.119Z,80.04
2023-03-11T02:30:08.068Z,80.56
2023-03-11T02:31:08.150Z,80.81
2023-03-11T02:32:08.074Z,80.55
2023-03-11T02:33:08.037Z,80.24
2023-03-11T02:34:08.025Z,79.30
2023-03-11T02:35:08.061Z,79.06
2023-03-11T02:36:08.139Z,79.04
2023-03-11T02:37:07.980Z,78.74
2023-03-11T02:38:08.023Z,78.79
2023-03-11T02:39:07.988Z,79.02
2023-03-11T02:40:07.954Z,78.77
2023-03-11T02:41:07.976Z,79.20
2023-03-11T02:42:07.927Z,79.87
2023-03-11T02:43:07.965Z,78.85
2023-03-11T02:44:07.905Z,78.60
2023-03-11T02:45:07.892Z,78.54
2023-03-11T02:46:07.862Z,78.31
2023-03-11T02:47:07.903Z,78.54
2023-03-11T02:48:07.854Z,78.36
2023-03-11T02:49:07.866Z,78.83
2023-03-11T02:50:07.842Z,79.08
2023-03-11T02:51:07.821Z,78.96
2023-03-11T02:52:07.805Z,77.70
2023-03-11T02:53:07.845Z,77.86
2023-03-11T02:54:07.778Z,78.33
2023-03-11T02:55:07.768Z,78.02
2023-03-11T02:56:07.772Z,77.85
2023-03-11T02:57:07.739Z,77.90
2023-03-11T02:58:07.743Z,77.90
2023-03-11T02:59:07.762Z,78.64
2023-03-11T03:00:07.686Z,78.00
2023-03-11T03:01:07.712Z,77.36
2023-03-11T03:02:07.699Z,77.06
2023-03-11T03:03:07.671Z,77.19
2023-03-11T03:04:07.836Z,76.86
2023-03-11T03:05:07.664Z,76.60
2023-03-11T03:06:07.612Z,76.95
2023-03-11T03:07:07.600Z,76.76
2023-03-11T03:08:07.596Z,76.79
2023-03-11T03:09:07.684Z,76.88
2023-03-11T03:10:07.604Z,77.37
2023-03-11T03:11:07.647Z,78.20
2023-03-11T03:12:07.568Z,78.13
2023-03-11T03:13:07.528Z,77.94
2023-03-11T03:14:07.516Z,78.81
2023-03-11T03:15:07.525Z,78.92
2023-03-11T03:16:07.530Z,78.16
2023-03-11T03:17:07.571Z,78.68
2023-03-11T03:18:07.479Z,77.97
2023-03-11T03:19:07.455Z,78.12
2023-03-11T03:20:07.464Z,78.01
2023-03-11T03:21:07.433Z,78.13
2023-03-11T03:22:07.420Z,78.69
2023-03-11T03:23:07.440Z,78.30
2023-03-11T03:24:07.421Z,77.69
2023-03-11T03:25:07.389Z,78.26
2023-03-11T03:26:07.372Z,78.85
2023-03-11T03:27:07.361Z,79.01
2023-03-11T03:28:07.348Z,78.55
2023-03-11T03:29:07.359Z,78.30
2023-03-11T03:30:07.336Z,77.62
2023-03-11T03:31:07.304Z,78.04
2023-03-11T03:32:07.351Z,78.53
2023-03-11T03:33:07.319Z,78.72
2023-03-11T03:34:07.285Z,78.91
2023-03-11T03:35:07.291Z,78.76
2023-03-11T03:36:07.346Z,78.27
2023-03-11T03:37:07.255Z,77.67
2023-03-11T03:38:07.225Z,77.12
2023-03-11T03:39:07.236Z,77.49
2023-03-11T03:40:07.204Z,77.85
2023-03-11T03:41:07.247Z,77.53
2023-03-11T03:42:07.218Z,77.53
2023-03-11T03:43:07.153Z,77.03
2023-03-11T03:44:07.159Z,77.49
2023-03-11T03:45:07.177Z,77.53
2023-03-11T03:46:07.223Z,76.93
2023-03-11T03:47:07.143Z,77.36
2023-03-11T03:48:07.096Z,77.23
2023-03-11T03:49:07.109Z,77.27
2023-03-11T03:50:07.088Z,77.23
2023-03-11T03:51:07.079Z,77.51
2023-03-11T03:52:07.044Z,77.38
2023-03-11T03:53:07.055Z,78.00
2023-03-11T03:54:07.036Z,77.14
2023-03-11T03:55:07.094Z,77.32
2023-03-11T03:56:07.009Z,77.18
2023-03-11T03:57:06.997Z,77.45
2023-03-11T03:58:06.976Z,77.13
2023-03-11T03:59:06.999Z,76.73
2023-03-11T04:00:06.967Z,76.92
2023-03-11T04:01:06.948Z,76.73
2023-03-11T04:02:06.953Z,75.77
2023-03-11T04:03:06.996Z,75.86
2023-03-11T04:04:06.903Z,76.16
2023-03-11T04:05:06.928Z,76.32
2023-03-11T04:06:06.877Z,75.68
2023-03-11T04:07:06.875Z,76.07
2023-03-11T04:08:06.863Z,76.01
2023-03-11T04:09:06.838Z,77.41
2023-03-11T04:10:06.863Z,76.70
2023-03-11T04:11:06.850Z,76.09
2023-03-11T04:12:06.830Z,76.70
2023-03-11T04:13:06.794Z,76.91
2023-03-11T04:14:06.786Z,76.49
2023-03-11T04:15:06.795Z,76.51
2023-03-11T04:16:06.786Z,76.29
2023-03-11T04:17:06.818Z,76.31
2023-03-11T04:18:06.723Z,76.80
2023-03-11T04:19:06.750Z,75.92
2023-03-11T04:20:06.724Z,76.09
2023-03-11T04:21:06.744Z,76.80
2023-03-11T04:22:06.673Z,76.32
2023-03-11T04:23:06.702Z,75.76
2023-03-11T04:24:06.651Z,76.06
2023-03-11T04:25:06.675Z,76.38
2023-03-11T04:26:06.627Z,77.14
2023-03-11T04:27:06.606Z,77.14
2023-03-11T04:28:06.603Z,77.78
2023-03-11T04:29:06.634Z,78.15
2023-03-11T04:30:06.587Z,78.72
2023-03-11T04:31:06.683Z,79.11
2023-03-11T04:32:06.548Z,79.40
2023-03-11T04:33:06.556Z,79.88
2023-03-11T04:34:06.528Z,79.88
2023-03-11T04:35:06.677Z,79.77
2023-03-11T04:36:06.543Z,79.37
2023-03-11T04:37:06.512Z,79.59
2023-03-11T04:38:06.470Z,79.91
2023-03-11T04:39:06.482Z,79.86
2023-03-11T04:40:06.440Z,79.92
2023-03-11T04:41:06.478Z,80.03
2023-03-11T04:42:06.426Z,80.26
2023-03-11T04:43:06.428Z,80.49
2023-03-11T04:44:06.406Z,80.90
2023-03-11T04:45:06.379Z,80.90
2023-03-11T04:46:06.453Z,81.06
2023-03-11T04:47:06.389Z,81.26
2023-03-11T04:48:06.405Z,81.45
2023-03-11T04:49:06.339Z,79.94
2023-03-11T04:50:06.347Z,78.69
2023-03-11T04:51:06.317Z,77.71
2023-03-11T04:52:06.310Z,77.59
2023-03-11T04:53:06.312Z,77.79
2023-03-11T04:54:06.288Z,78.22
2023-03-11T04:55:06.253Z,78.10
2023-03-11T04:56:06.276Z,77.77
2023-03-11T04:57:06.232Z,77.73
2023-03-11T04:58:06.232Z,77.22
2023-03-11T04:59:06.242Z,77.13
2023-03-11T05:00:06.207Z,76.77
2023-03-11T05:01:06.242Z,77.34
2023-03-11T05:02:06.174Z,77.68
2023-03-11T05:03:06.168Z,77.73
2023-03-11T05:04:06.164Z,78.00
2023-03-11T05:05:06.163Z,78.06
2023-03-11T05:06:06.131Z,77.98
2023-03-11T05:07:06.134Z,77.60
2023-03-11T05:08:06.123Z,78.09
2023-03-11T05:09:06.085Z,77.84
2023-03-11T05:10:06.081Z,77.38
2023-03-11T05:11:06.081Z,78.07
2023-03-11T05:12:06.055Z,78.11
2023-03-11T05:13:06.050Z,78.22
2023-03-11T05:14:06.080Z,78.29
2023-03-11T05:15:06.023Z,78.28
2023-03-11T05:16:06.041Z,78.40
2023-03-11T05:17:06.015Z,78.39
2023-03-11T05:18:05.992Z,78.31
2023-03-11T05:19:05.954Z,78.82
2023-03-11T05:20:05.951Z,78.82
2023-03-11T05:21:05.941Z,78.72
2023-03-11T05:22:05.964Z,78.80
2023-03-11T05:23:05.945Z,78.84
2023-03-11T05:24:05.903Z,79.47
2023-03-11T05:25:05.900Z,79.15
2023-03-11T05:26:05.888Z,77.72
2023-03-11T05:27:05.884Z,77.75
2023-03-11T05:28:05.860Z,77.66
2023-03-11T05:29:05.862Z,78.34
2023-03-11T05:30:05.836Z,77.77
2023-03-11T05:31:05.833Z,78.23
2023-03-11T05:32:05.803Z,77.39
2023-03-11T05:33:05.785Z,77.21
2023-03-11T05:34:05.798Z,77.13
2023-03-11T05:35:05.810Z,78.16
2023-03-11T05:36:05.809Z,77.07
2023-03-11T05:37:05.751Z,77.70
2023-03-11T05:38:05.724Z,77.76
2023-03-11T05:39:05.712Z,77.18
2023-03-11T05:40:05.739Z,77.47
2023-03-11T05:41:05.733Z,76.95
2023-03-11T05:42:05.685Z,77.17
2023-03-11T05:43:05.669Z,77.36
2023-03-11T05:44:05.661Z,77.45
2023-03-11T05:45:05.694Z,77.84
2023-03-11T05:46:05.728Z,78.00
2023-03-11T05:47:05.653Z,77.57
2023-03-11T05:48:05.621Z,77.64
2023-03-11T05:49:05.602Z,77.59
2023-03-11T05:50:05.598Z,77.84
2023-03-11T05:51:05.586Z,77.85
2023-03-11T05:52:05.573Z,77.64
2023-03-11T05:53:05.575Z,76.94
2023-03-11T05:54:05.539Z,77.67
2023-03-11T05:55:05.543Z,77.75
2023-03-11T05:56:05.506Z,77.57
2023-03-11T05:57:05.515Z,77.66
2023-03-11T05:58:05.556Z,77.23
2023-03-11T05:59:05.537Z,76.79
2023-03-11T06:00:05.501Z,76.73
2023-03-11T06:01:05.445Z,76.01
2023-03-11T06:02:05.451Z,75.61
2023-03-11T06:03:05.442Z,75.69
2023-03-11T06:04:05.533Z,75.51
2023-03-11T06:05:08.205Z,75.68
2023-03-11T06:06:05.375Z,74.82
2023-03-11T06:07:05.382Z,74.61
2023-03-11T06:08:05.373Z,74.36
2023-03-11T06:09:05.365Z,74.35
2023-03-11T06:10:05.317Z,74.36
2023-03-11T06:11:05.366Z,74.93
2023-03-11T06:12:05.314Z,75.19
2023-03-11T06:13:05.296Z,75.15
2023-03-11T06:14:05.293Z,75.42
2023-03-11T06:15:05.278Z,75.04
2023-03-11T06:16:05.357Z,75.66
2023-03-11T06:17:05.286Z,75.19
2023-03-11T06:18:05.279Z,75.36
2023-03-11T06:19:05.216Z,75.97
2023-03-11T06:20:05.199Z,75.71
2023-03-11T06:21:05.196Z,75.91
2023-03-11T06:22:05.243Z,74.65
2023-03-11T06:23:05.653Z,75.02
2023-03-11T06:24:05.196Z,74.91
2023-03-11T06:25:05.145Z,74.62
2023-03-11T06:26:05.178Z,74.63
2023-03-11T06:27:05.121Z,74.99
2023-03-11T06:28:05.156Z,75.71
2023-03-11T06:29:05.161Z,75.93
2023-03-11T06:30:05.105Z,75.65
2023-03-11T06:31:05.103Z,76.14
2023-03-11T06:32:05.064Z,76.03
2023-03-11T06:33:05.043Z,75.67
2023-03-11T06:34:05.019Z,75.36
2023-03-11T06:35:05.145Z,75.83
2023-03-11T06:36:05.078Z,75.35
2023-03-11T06:37:05.031Z,75.26
2023-03-11T06:38:04.981Z,75.48
2023-03-11T06:39:05.006Z,75.06
2023-03-11T06:40:04.950Z,74.99
2023-03-11T06:41:05.006Z,75.24
2023-03-11T06:42:04.918Z,75.42
2023-03-11T06:43:04.923Z,75.94
2023-03-11T06:44:04.992Z,76.13
2023-03-11T06:45:04.896Z,76.22
2023-03-11T06:46:04.964Z,75.85
2023-03-11T06:47:04.916Z,76.33
2023-03-11T06:48:04.856Z,76.57
2023-03-11T06:49:04.872Z,76.79
2023-03-11T06:50:04.889Z,76.48
2023-03-11T06:51:04.847Z,76.14
2023-03-11T06:52:04.833Z,76.33
2023-03-11T06:53:04.833Z,76.58
2023-03-11T06:54:04.796Z,76.39
2023-03-11T06:55:04.778Z,77.00
2023-03-11T06:56:04.740Z,76.41
2023-03-11T06:57:04.734Z,76.18
2023-03-11T06:58:04.728Z,76.48
2023-03-11T06:59:04.807Z,76.60
2023-03-11T07:00:04.685Z,76.50
2023-03-11T07:01:04.771Z,76.37
2023-03-11T07:02:05.671Z,75.70
2023-03-11T07:03:04.662Z,75.81
2023-03-11T07:04:04.674Z,76.06
2023-03-11T07:05:04.671Z,76.74
2023-03-11T07:06:06.644Z,76.49
2023-03-11T07:07:04.616Z,76.63
2023-03-11T07:08:04.619Z,75.63
2023-03-11T07:09:04.595Z,75.30
2023-03-11T07:10:04.582Z,75.64
2023-03-11T07:11:04.613Z,76.16
2023-03-11T07:12:06.655Z,76.15
2023-03-11T07:13:04.584Z,76.02
2023-03-11T07:14:04.526Z,75.91
2023-03-11T07:15:04.598Z,75.80
2023-03-11T07:16:04.525Z,75.48
2023-03-11T07:17:04.532Z,75.42
2023-03-11T07:18:04.490Z,75.63
2023-03-11T07:19:04.460Z,74.85
2023-03-11T07:20:04.442Z,74.54
2023-03-11T07:21:04.444Z,75.42
2023-03-11T07:22:04.433Z,75.24
2023-03-11T07:23:04.470Z,74.96
2023-03-11T07:24:04.444Z,75.18
2023-03-11T07:25:04.400Z,74.92
2023-03-11T07:26:04.375Z,74.66
2023-03-11T07:27:04.370Z,74.30
2023-03-11T07:28:04.340Z,74.09
2023-03-11T07:29:04.402Z,73.58
2023-03-11T07:30:04.326Z,73.39
2023-03-11T07:31:04.309Z,73.06
2023-03-11T07:32:04.452Z,73.54
2023-03-11T07:33:04.282Z,73.21
2023-03-11T07:34:04.370Z,73.34
2023-03-11T07:35:04.308Z,73.00
2023-03-11T07:36:04.314Z,72.75
2023-03-11T07:37:04.244Z,73.22
2023-03-11T07:38:04.222Z,72.60
2023-03-11T07:39:04.555Z,72.76
2023-03-11T07:40:04.200Z,72.26
2023-03-11T07:41:04.215Z,71.74
2023-03-11T07:42:04.228Z,71.32
2023-03-11T07:43:04.186Z,70.88
2023-03-11T07:44:04.178Z,70.65
2023-03-11T07:45:04.137Z,71.07
2023-03-11T07:46:04.124Z,70.38
2023-03-11T07:47:04.151Z,71.07
2023-03-11T07:48:04.266Z,71.39
2023-03-11T07:49:04.084Z,70.83
2023-03-11T07:50:04.088Z,70.80
2023-03-11T07:51:04.046Z,71.01
2023-03-11T07:52:04.053Z,70.40
2023-03-11T07:53:04.080Z,70.67
2023-03-11T07:54:04.043Z,70.55
2023-03-11T07:55:04.034Z,70.00
2023-03-11T07:56:04.007Z,70.03
2023-03-11T07:57:03.988Z,70.36
2023-03-11T07:58:03.970Z,70.53
2023-03-11T07:59:04.045Z,70.08
2023-03-11T08:00:03.987Z,70.25
2023-03-11T08:01:03.922Z,70.76
2023-03-11T08:02:03.982Z,71.03
2023-03-11T08:03:03.904Z,71.17
2023-03-11T08:04:03.903Z,70.75
2023-03-11T08:05:03.919Z,70.25
2023-03-11T08:06:03.861Z,69.81
2023-03-11T08:07:03.852Z,69.64
2023-03-11T08:08:03.854Z,68.55
2023-03-11T08:09:03.895Z,69.02
2023-03-11T08:10:03.824Z,69.26
2023-03-11T08:11:03.876Z,69.44
2023-03-11T08:12:03.804Z,69.88
2023-03-11T08:13:03.806Z,69.31
2023-03-11T08:14:03.786Z,69.91
2023-03-11T08:15:03.774Z,70.06
2023-03-11T08:16:03.831Z,69.69
2023-03-11T08:17:03.783Z,69.55
2023-03-11T08:18:03.727Z,69.63
2023-03-11T08:19:03.744Z,70.29
2023-03-11T08:20:03.708Z,69.62
2023-03-11T08:21:03.684Z,69.53
2023-03-11T08:22:03.832Z,69.48
2023-03-11T08:23:03.688Z,69.65
2023-03-11T08:24:06.154Z,68.64
2023-03-11T08:25:03.628Z,66.62
2023-03-11T08:26:03.630Z,67.06
2023-03-11T08:27:03.605Z,66.01
2023-03-11T08:28:03.603Z,66.44
2023-03-11T08:29:03.641Z,65.56
2023-03-11T08:30:03.600Z,65.45
2023-03-11T08:31:03.616Z,63.85
2023-03-11T08:32:03.542Z,63.77
2023-03-11T08:33:03.726Z,65.22
2023-03-11T08:34:03.524Z,65.85
2023-03-11T08:35:03.603Z,65.73
2023-03-11T08:36:03.619Z,64.98
2023-03-11T08:37:03.480Z,64.40
2023-03-11T08:38:03.461Z,63.85
2023-03-11T08:39:03.594Z,62.94
2023-03-11T08:40:03.475Z,63.07
2023-03-11T08:41:03.435Z,62.47
2023-03-11T08:42:03.421Z,63.72
2023-03-11T08:43:03.409Z,63.22
2023-03-11T08:44:03.381Z,63.47
2023-03-11T08:45:03.411Z,63.20
2023-03-11T08:46:03.397Z,62.33
2023-03-11T08:47:03.391Z,61.94
2023-03-11T08:48:03.647Z,61.59
2023-03-11T08:49:03.330Z,62.57
2023-03-11T08:50:03.301Z,63.04
2023-03-11T08:51:03.320Z,63.64
2023-03-11T08:52:03.289Z,63.01
2023-03-11T08:53:03.322Z,62.53
2023-03-11T08:54:03.268Z,63.16
2023-03-11T08:55:03.289Z,62.89
2023-03-11T08:56:03.238Z,63.79
2023-03-11T08:57:03.214Z,64.11
2023-03-11T08:58:03.190Z,64.00
2023-03-11T08:59:03.253Z,64.69
2023-03-11T09:00:03.172Z,64.87
2023-03-11T09:01:03.179Z,64.79
2023-03-11T09:02:03.178Z,65.20
2023-03-11T09:03:03.158Z,65.26
2023-03-11T09:04:03.122Z,65.23
2023-03-11T09:05:03.167Z,65.48
2023-03-11T09:06:03.172Z,63.35
2023-03-11T09:07:03.087Z,61.73
2023-03-11T09:08:05.260Z,61.14
2023-03-11T09:09:03.060Z,60.25
2023-03-11T09:10:03.056Z,60.86
2023-03-11T09:11:03.093Z,61.16
2023-03-11T09:12:03.027Z,58.42
2023-03-11T09:13:03.004Z,58.47
2023-03-11T09:14:03.003Z,57.61
2023-03-11T09:15:03.043Z,55.91
2023-03-11T09:16:03.005Z,56.81
2023-03-11T09:17:02.982Z,56.57
2023-03-11T09:18:02.937Z,58.27
2023-03-11T09:19:02.969Z,57.92
2023-03-11T09:20:02.930Z,56.66
2023-03-11T09:21:02.928Z,57.25
2023-03-11T09:22:02.901Z,54.09
2023-03-11T09:23:02.919Z,53.74
2023-03-11T09:24:02.875Z,53.89
2023-03-11T09:25:02.877Z,55.21
2023-03-11T09:26:02.844Z,56.25
2023-03-11T09:27:02.842Z,55.77
2023-03-11T09:28:02.828Z,54.42
2023-03-11T09:29:02.837Z,55.46
2023-03-11T09:30:02.802Z,56.39
2023-03-11T09:31:02.888Z,54.67
2023-03-11T09:32:02.773Z,53.80
2023-03-11T09:33:02.754Z,52.44
2023-03-11T09:34:02.744Z,51.04
2023-03-11T09:35:02.782Z,50.04
2023-03-11T09:36:02.748Z,48.24
2023-03-11T09:37:02.710Z,46.58
2023-03-11T09:38:02.705Z,47.05
2023-03-11T09:39:02.675Z,45.39
2023-03-11T09:40:02.656Z,43.60
2023-03-11T09:41:02.697Z,42.34
2023-03-11T09:42:02.645Z,42.00
2023-03-11T09:43:02.679Z,44.29
2023-03-11T09:44:02.639Z,44.58
2023-03-11T09:45:02.627Z,41.30
2023-03-11T09:46:02.594Z,41.68
2023-03-11T09:47:02.700Z,42.03
2023-03-11T09:48:02.561Z,43.14
2023-03-11T09:49:06.009Z,43.72
2023-03-11T09:50:02.532Z,43.42
2023-03-11T09:51:02.535Z,41.43
2023-03-11T09:52:02.522Z,40.52
2023-03-11T09:53:02.538Z,37.88
2023-03-11T09:54:02.477Z,36.79
2023-03-11T09:55:02.478Z,37.20
2023-03-11T09:56:02.478Z,36.21
2023-03-11T09:57:02.442Z,35.66
2023-03-11T09:58:02.439Z,34.54
2023-03-11T09:59:02.461Z,35.02
2023-03-11T10:00:02.406Z,36.41
2023-03-11T10:01:02.407Z,38.30
2023-03-11T10:02:02.432Z,36.68
2023-03-11T10:03:02.457Z,36.38
2023-03-11T10:04:02.353Z,36.27
2023-03-11T10:05:02.372Z,34.81
2023-03-11T10:06:02.344Z,34.02
2023-03-11T10:07:02.333Z,33.77
2023-03-11T10:08:02.365Z,34.65
2023-03-11T10:09:02.495Z,32.64
2023-03-11T10:10:02.286Z,32.94
2023-03-11T10:11:02.321Z,32.52
2023-03-11T10:12:02.900Z,33.26
2023-03-11T10:13:02.251Z,35.47
2023-03-11T10:14:02.238Z,36.45
2023-03-11T10:15:02.222Z,37.74
2023-03-11T10:16:02.277Z,36.26
2023-03-11T10:17:02.232Z,32.92
2023-03-11T10:18:02.192Z,32.27
2023-03-11T10:19:02.202Z,30.85
2023-03-11T10:20:02.210Z,29.95
2023-03-11T10:21:02.157Z,29.55
2023-03-11T10:22:02.180Z,30.58
2023-03-11T10:23:02.163Z,33.60
2023-03-11T10:24:02.109Z,32.65
2023-03-11T10:25:02.103Z,32.36
2023-03-11T10:26:02.097Z,32.54
2023-03-11T10:27:02.093Z,30.54
2023-03-11T10:28:02.076Z,30.38
2023-03-11T10:29:02.133Z,29.98
2023-03-11T10:30:02.085Z,31.23
2023-03-11T10:31:02.042Z,29.01
2023-03-11T10:32:02.146Z,29.46
2023-03-11T10:33:02.014Z,31.71
2023-03-11T10:34:01.991Z,31.92
2023-03-11T10:35:02.012Z,30.02
2023-03-11T10:36:01.980Z,32.24
2023-03-11T10:37:01.954Z,32.97
2023-03-11T10:38:01.985Z,33.60
2023-03-11T10:39:01.931Z,33.93
2023-03-11T10:40:01.935Z,33.59
2023-03-11T10:41:01.950Z,35.05
2023-03-11T10:42:01.887Z,36.74
2023-03-11T10:43:01.896Z,35.70
2023-03-11T10:44:01.870Z,36.12
2023-03-11T10:45:01.876Z,38.97
2023-03-11T10:46:01.881Z,38.08
2023-03-11T10:47:01.863Z,36.71
2023-03-11T10:48:01.837Z,33.61
2023-03-11T10:49:01.806Z,34.07
2023-03-11T10:50:01.818Z,32.66
2023-03-11T10:51:01.816Z,31.70
2023-03-11T10:52:01.806Z,29.99
2023-03-11T10:53:01.798Z,30.38
2023-03-11T10:54:01.833Z,29.35
2023-03-11T10:55:01.737Z,28.42
2023-03-11T10:56:01.745Z,27.55
2023-03-11T10:57:01.740Z,26.27
2023-03-11T10:58:01.700Z,27.50
2023-03-11T10:59:01.754Z,30.19
2023-03-11T11:00:01.680Z,30.64
2023-03-11T11:01:01.776Z,32.97
2023-03-11T11:02:01.668Z,31.45
2023-03-11T11:03:01.649Z,30.28
2023-03-11T11:04:01.705Z,31.01
2023-03-11T11:05:01.645Z,31.61
2023-03-11T11:06:01.604Z,30.33
2023-03-11T11:07:01.612Z,32.05
2023-03-11T11:08:01.591Z,30.90
2023-03-11T11:09:01.568Z,31.12
2023-03-11T11:10:01.580Z,31.01
2023-03-11T11:11:01.610Z,32.75
2023-03-11T11:12:01.595Z,31.97
2023-03-11T11:13:01.536Z,34.55
2023-03-11T11:14:01.511Z,33.78
2023-03-11T11:15:01.510Z,34.42
2023-03-11T11:16:01.547Z,32.15
2023-03-11T11:17:01.594Z,31.59
2023-03-11T11:18:01.477Z,33.29
2023-03-11T11:19:01.464Z,33.28
2023-03-11T11:20:01.451Z,35.96
2023-03-11T11:21:01.433Z,38.57
2023-03-11T11:22:01.425Z,37.73
2023-03-11T11:23:01.450Z,37.67
2023-03-11T11:24:01.396Z,38.50
2023-03-11T11:25:01.417Z,38.16
2023-03-11T11:26:01.372Z,35.89
2023-03-11T11:27:01.381Z,36.17
2023-03-11T11:28:01.338Z,38.23
2023-03-11T11:29:01.371Z,37.13
2023-03-11T11:30:01.325Z,35.30
2023-03-11T11:31:01.371Z,37.87
2023-03-11T11:32:01.315Z,35.32
2023-03-11T11:33:01.299Z,36.58
2023-03-11T11:34:01.285Z,35.52
2023-03-11T11:35:01.309Z,35.11
2023-03-11T11:36:01.311Z,36.96
2023-03-11T11:37:01.264Z,36.90
2023-03-11T11:38:01.219Z,39.90
2023-03-11T11:39:01.204Z,40.55
2023-03-11T11:40:01.202Z,41.38
2023-03-11T11:41:01.232Z,42.52
2023-03-11T11:42:01.187Z,45.44
2023-03-11T11:43:01.157Z,47.25
2023-03-11T11:44:01.144Z,40.74
2023-03-11T11:45:01.132Z,38.04
2023-03-11T11:46:01.231Z,36.99
2023-03-11T11:47:01.141Z,36.22
2023-03-11T11:48:01.104Z,35.57
2023-03-11T11:49:01.076Z,35.49
2023-03-11T11:50:01.092Z,37.60
2023-03-11T11:51:01.058Z,37.03
2023-03-11T11:52:01.070Z,37.76
2023-03-11T11:53:01.058Z,37.51
2023-03-11T11:54:01.023Z,38.80
2023-03-11T11:55:01.010Z,40.15
2023-03-11T11:56:01.010Z,41.25
2023-03-11T11:57:01.009Z,40.83
2023-03-11T11:58:00.970Z,42.57
2023-03-11T11:59:01.001Z,40.93
2023-03-11T12:00:00.973Z,40.95
2023-03-11T12:01:00.946Z,40.47
2023-03-11T12:02:00.940Z,41.59
2023-03-11T12:03:00.911Z,41.09
2023-03-11T12:04:00.983Z,40.38
2023-03-11T12:05:00.929Z,41.26
2023-03-11T12:06:00.950Z,41.46
2023-03-11T12:07:00.872Z,42.66
2023-03-11T12:08:00.846Z,44.21
2023-03-11T12:09:00.838Z,43.75
2023-03-11T12:10:10.089Z,42.50
2023-03-11T12:11:00.867Z,44.70
2023-03-11T12:12:00.843Z,47.13
2023-03-11T12:13:00.831Z,49.08
2023-03-11T12:14:00.807Z,48.41
2023-03-11T12:15:00.767Z,47.04
2023-03-11T12:16:00.803Z,47.19
2023-03-11T12:17:02.611Z,46.32
2023-03-11T12:18:00.762Z,43.68
2023-03-11T12:19:00.714Z,42.60
2023-03-11T12:20:00.702Z,41.17
2023-03-11T12:21:00.714Z,41.42
2023-03-11T12:22:00.705Z,42.53
2023-03-11T12:23:00.704Z,42.01
2023-03-11T12:24:00.654Z,44.64
2023-03-11T12:25:00.783Z,43.05
2023-03-11T12:26:00.636Z,44.26
2023-03-11T12:27:00.639Z,42.32
2023-03-11T12:28:00.612Z,42.29
2023-03-11T12:29:00.631Z,41.91
2023-03-11T12:30:00.606Z,42.76
2023-03-11T12:31:00.627Z,43.37
2023-03-11T12:32:00.548Z,43.24
2023-03-11T12:33:00.552Z,46.77
2023-03-11T12:34:00.542Z,46.64
2023-03-11T12:35:00.552Z,48.25
2023-03-11T12:36:00.659Z,47.57
2023-03-11T12:37:00.490Z,49.12
2023-03-11T12:38:00.486Z,50.80
2023-03-11T12:39:00.469Z,51.92
2023-03-11T12:40:00.479Z,53.09
2023-03-11T12:41:00.500Z,54.89
2023-03-11T12:42:00.459Z,54.62
2023-03-11T12:43:00.424Z,55.59
2023-03-11T12:44:00.491Z,56.67
2023-03-11T12:45:00.401Z,56.14
2023-03-11T12:46:00.472Z,55.22
2023-03-11T12:47:00.565Z,54.52
2023-03-11T12:48:00.384Z,54.23
2023-03-11T12:49:00.344Z,55.49
2023-03-11T12:50:00.319Z,54.72
2023-03-11T12:51:00.322Z,54.11
2023-03-11T12:52:01.163Z,54.39